sensor_id;sensor_type;location;lat;lon;timestamp;pressure;altitude;pressure_sealevel;temperature;humidity
39739;BME280;25422;48.286;8.484;2023-12-14T00:01:33;93012.66;;;2.63;100.00
39739;BME280;25422;48.286;8.484;2023-12-14T00:03:59;93016.34;;;2.60;100.00
39739;BME280;25422;48.286;8.484;2023-12-14T00:06:24;93022.50;;;2.59;100.00
39739;BME280;25422;48.286;8.484;2023-12-14T00:08:50;93024.69;;;2.54;100.00
39739;BME280;25422;48.286;8.484;2023-12-14T00:11:15;93031.78;;;2.52;100.00
39739;BME280;25422;48.286;8.484;2023-12-14T00:13:41;93033.72;;;2.50;100.00
39739;BME280;25422;48.286;8.484;2023-12-14T00:16:07;93040.78;;;2.48;100.00
39739;BME280;25422;48.286;8.484;2023-12-14T00:18:33;93051.09;;;2.48;100.00
39739;BME280;25422;48.286;8.484;2023-12-14T00:20:58;93052.72;;;2.49;100.00
39739;BME280;25422;48.286;8.484;2023-12-14T00:23:24;93045.66;;;2.51;100.00
39739;BME280;25422;48.286;8.484;2023-12-14T00:25:50;93061.94;;;2.51;100.00
39739;BME280;25422;48.286;8.484;2023-12-14T00:28:15;93062.75;;;2.52;100.00
39739;BME280;25422;48.286;8.484;2023-12-14T00:30:41;93056.47;;;2.55;100.00
39739;BME280;25422;48.286;8.484;2023-12-14T00:33:06;93065.06;;;2.55;100.00
39739;BME280;25422;48.286;8.484;2023-12-14T00:35:32;93057.31;;;2.55;100.00
39739;BME280;25422;48.286;8.484;2023-12-14T00:37:57;93064.91;;;2.57;100.00
39739;BME280;25422;48.286;8.484;2023-12-14T00:40:23;93066.66;;;2.56;100.00
39739;BME280;25422;48.286;8.484;2023-12-14T00:42:48;93070.88;;;2.57;100.00
39739;BME280;25422;48.286;8.484;2023-12-14T00:45:14;93074.13;;;2.59;100.00
39739;BME280;25422;48.286;8.484;2023-12-14T00:47:39;93069.75;;;2.60;100.00
39739;BME280;25422;48.286;8.484;2023-12-14T00:50:05;93068.13;;;2.59;100.00
39739;BME280;25422;48.286;8.484;2023-12-14T00:52:30;93072.88;;;2.63;100.00
39739;BME280;25422;48.286;8.484;2023-12-14T00:54:56;93074.94;;;2.60;100.00
39739;BME280;25422;48.286;8.484;2023-12-14T00:57:21;93078.31;;;2.60;100.00
39739;BME280;25422;48.286;8.484;2023-12-14T00:59:47;93087.84;;;2.60;100.00
39739;BME280;25422;48.286;8.484;2023-12-14T01:02:12;93088.78;;;2.59;100.00
39739;BME280;25422;48.286;8.484;2023-12-14T01:04:38;93087.03;;;2.59;100.00
39739;BME280;25422;48.286;8.484;2023-12-14T01:07:04;93092.84;;;2.61;100.00
39739;BME280;25422;48.286;8.484;2023-12-14T01:09:30;93104.97;;;2.61;100.00
39739;BME280;25422;48.286;8.484;2023-12-14T01:11:55;93100.59;;;2.61;100.00
39739;BME280;25422;48.286;8.484;2023-12-14T01:14:21;93107.53;;;2.61;100.00
39739;BME280;25422;48.286;8.484;2023-12-14T01:16:46;93112.88;;;2.59;100.00
39739;BME280;25422;48.286;8.484;2023-12-14T01:19:12;93114.91;;;2.56;100.00
39739;BME280;25422;48.286;8.484;2023-12-14T01:21:37;93114.38;;;2.52;100.00
39739;BME280;25422;48.286;8.484;2023-12-14T01:24:03;93115.50;;;2.49;100.00
39739;BME280;25422;48.286;8.484;2023-12-14T01:26:28;93120.66;;;2.49;100.00
39739;BME280;25422;48.286;8.484;2023-12-14T01:28:54;93129.38;;;2.48;100.00
39739;BME280;25422;48.286;8.484;2023-12-14T01:31:19;93130.47;;;2.46;100.00
39739;BME280;25422;48.286;8.484;2023-12-14T01:33:48;93128.84;;;2.45;100.00
39739;BME280;25422;48.286;8.484;2023-12-14T01:36:23;93138.22;;;2.46;100.00
39739;BME280;25422;48.286;8.484;2023-12-14T01:38:49;93141.47;;;2.48;100.00
39739;BME280;25422;48.286;8.484;2023-12-14T01:41:15;93142.13;;;2.50;100.00
39739;BME280;25422;48.286;8.484;2023-12-14T01:43:40;93146.34;;;2.51;100.00
39739;BME280;25422;48.286;8.484;2023-12-14T01:46:06;93149.28;;;2.56;100.00
39739;BME280;25422;48.286;8.484;2023-12-14T01:48:31;93162.56;;;2.61;100.00
39739;BME280;25422;48.286;8.484;2023-12-14T01:50:57;93162.97;;;2.66;100.00
39739;BME280;25422;48.286;8.484;2023-12-14T01:53:22;93158.44;;;2.68;100.00
39739;BME280;25422;48.286;8.484;2023-12-14T01:55:48;93158.91;;;2.64;100.00
39739;BME280;25422;48.286;8.484;2023-12-14T01:58:13;93157.56;;;2.60;100.00
39739;BME280;25422;48.286;8.484;2023-12-14T02:03:45;93172.75;;;2.63;100.00
39739;BME280;25422;48.286;8.484;2023-12-14T02:06:11;93171.97;;;2.62;100.00
39739;BME280;25422;48.286;8.484;2023-12-14T02:08:36;93177.13;;;2.62;100.00
39739;BME280;25422;48.286;8.484;2023-12-14T02:11:02;93185.53;;;2.64;100.00
39739;BME280;25422;48.286;8.484;2023-12-14T02:13:27;93191.50;;;2.65;100.00
39739;BME280;25422;48.286;8.484;2023-12-14T02:15:53;93192.31;;;2.65;100.00
39739;BME280;25422;48.286;8.484;2023-12-14T02:18:19;93187.38;;;2.72;100.00
39739;BME280;25422;48.286;8.484;2023-12-14T02:20:44;93192.69;;;2.70;100.00
39739;BME280;25422;48.286;8.484;2023-12-14T02:23:10;93196.91;;;2.72;100.00
39739;BME280;25422;48.286;8.484;2023-12-14T02:25:35;93193.78;;;2.68;100.00
39739;BME280;25422;48.286;8.484;2023-12-14T02:28:00;93198.31;;;2.66;100.00
39739;BME280;25422;48.286;8.484;2023-12-14T02:30:26;93198.16;;;2.67;100.00
39739;BME280;25422;48.286;8.484;2023-12-14T02:32:51;93197.19;;;2.68;100.00
39739;BME280;25422;48.286;8.484;2023-12-14T02:35:17;93200.75;;;2.67;100.00
39739;BME280;25422;48.286;8.484;2023-12-14T02:37:43;93202.34;;;2.68;100.00
39739;BME280;25422;48.286;8.484;2023-12-14T02:40:10;93205.22;;;2.65;100.00
39739;BME280;25422;48.286;8.484;2023-12-14T02:42:35;93207.16;;;2.63;100.00
39739;BME280;25422;48.286;8.484;2023-12-14T02:45:02;93203.75;;;2.63;100.00
39739;BME280;25422;48.286;8.484;2023-12-14T02:47:30;93203.91;;;2.61;100.00
39739;BME280;25422;48.286;8.484;2023-12-14T02:49:55;93212.44;;;2.62;100.00
39739;BME280;25422;48.286;8.484;2023-12-14T02:52:21;93207.28;;;2.62;100.00
39739;BME280;25422;48.286;8.484;2023-12-14T02:54:47;93214.91;;;2.63;100.00
39739;BME280;25422;48.286;8.484;2023-12-14T02:57:12;93220.06;;;2.63;100.00
39739;BME280;25422;48.286;8.484;2023-12-14T02:59:39;93221.75;;;2.73;100.00
39739;BME280;25422;48.286;8.484;2023-12-14T03:02:04;93227.59;;;2.75;100.00
39739;BME280;25422;48.286;8.484;2023-12-14T03:04:30;93223.25;;;2.75;100.00
39739;BME280;25422;48.286;8.484;2023-12-14T03:06:55;93222.81;;;2.80;100.00
39739;BME280;25422;48.286;8.484;2023-12-14T03:09:21;93230.56;;;2.80;100.00
39739;BME280;25422;48.286;8.484;2023-12-14T03:11:48;93232.19;;;2.81;100.00
39739;BME280;25422;48.286;8.484;2023-12-14T03:14:13;93237.56;;;2.87;100.00
39739;BME280;25422;48.286;8.484;2023-12-14T03:16:38;93246.31;;;2.86;100.00
39739;BME280;25422;48.286;8.484;2023-12-14T03:19:04;93242.88;;;2.86;100.00
39739;BME280;25422;48.286;8.484;2023-12-14T03:21:30;93242.88;;;2.86;100.00
39739;BME280;25422;48.286;8.484;2023-12-14T03:23:56;93250.63;;;2.86;100.00
39739;BME280;25422;48.286;8.484;2023-12-14T03:26:22;93260.03;;;2.87;100.00
39739;BME280;25422;48.286;8.484;2023-12-14T03:28:47;93252.41;;;2.85;100.00
39739;BME280;25422;48.286;8.484;2023-12-14T03:31:13;93251.63;;;2.85;100.00
39739;BME280;25422;48.286;8.484;2023-12-14T03:33:39;93260.03;;;2.87;100.00
39739;BME280;25422;48.286;8.484;2023-12-14T03:36:05;93260.16;;;2.85;100.00
39739;BME280;25422;48.286;8.484;2023-12-14T03:38:31;93268.44;;;2.89;100.00
39739;BME280;25422;48.286;8.484;2023-12-14T03:40:57;93269.09;;;2.91;100.00
39739;BME280;25422;48.286;8.484;2023-12-14T03:43:22;93272.78;;;2.89;100.00
39739;BME280;25422;48.286;8.484;2023-12-14T03:45:47;93282.97;;;2.90;100.00
39739;BME280;25422;48.286;8.484;2023-12-14T03:48:13;93288.28;;;2.89;100.00
39739;BME280;25422;48.286;8.484;2023-12-14T03:50:38;93290.06;;;2.88;100.00
39739;BME280;25422;48.286;8.484;2023-12-14T03:53:04;93289.25;;;2.87;100.00
39739;BME280;25422;48.286;8.484;2023-12-14T03:55:29;93301.34;;;2.87;100.00
39739;BME280;25422;48.286;8.484;2023-12-14T03:57:54;93304.88;;;2.86;100.00
39739;BME280;25422;48.286;8.484;2023-12-14T04:00:20;93316.84;;;2.87;100.00
39739;BME280;25422;48.286;8.484;2023-12-14T04:02:45;93311.84;;;2.85;100.00
39739;BME280;25422;48.286;8.484;2023-12-14T04:05:11;93319.75;;;2.84;100.00
39739;BME280;25422;48.286;8.484;2023-12-14T04:07:37;93319.59;;;2.85;100.00
39739;BME280;25422;48.286;8.484;2023-12-14T04:10:07;93324.91;;;2.84;100.00
39739;BME280;25422;48.286;8.484;2023-12-14T04:12:33;93333.59;;;2.83;100.00
39739;BME280;25422;48.286;8.484;2023-12-14T04:14:58;93331.81;;;2.83;100.00
39739;BME280;25422;48.286;8.484;2023-12-14T04:17:24;93340.56;;;2.82;100.00
39739;BME280;25422;48.286;8.484;2023-12-14T04:19:49;93349.91;;;2.83;100.00
39739;BME280;25422;48.286;8.484;2023-12-14T04:22:15;93346.53;;;2.83;100.00
39739;BME280;25422;48.286;8.484;2023-12-14T04:24:41;93350.06;;;2.82;100.00
39739;BME280;25422;48.286;8.484;2023-12-14T04:27:06;93350.88;;;2.82;100.00
39739;BME280;25422;48.286;8.484;2023-12-14T04:29:32;93349.09;;;2.83;100.00
39739;BME280;25422;48.286;8.484;2023-12-14T04:31:57;93360.22;;;2.83;100.00
39739;BME280;25422;48.286;8.484;2023-12-14T04:34:23;93360.13;;;2.85;100.00
39739;BME280;25422;48.286;8.484;2023-12-14T04:36:49;93361.06;;;2.84;100.00
39739;BME280;25422;48.286;8.484;2023-12-14T04:39:15;93364.47;;;2.84;100.00
39739;BME280;25422;48.286;8.484;2023-12-14T04:41:42;93360.22;;;2.83;100.00
39739;BME280;25422;48.286;8.484;2023-12-14T04:44:07;93364.59;;;2.83;100.00
39739;BME280;25422;48.286;8.484;2023-12-14T04:46:35;93370.72;;;2.82;100.00
39739;BME280;25422;48.286;8.484;2023-12-14T04:49:00;93374.94;;;2.83;100.00
39739;BME280;25422;48.286;8.484;2023-12-14T04:51:26;93378.47;;;2.82;100.00
39739;BME280;25422;48.286;8.484;2023-12-14T04:53:51;93382.84;;;2.81;100.00
39739;BME280;25422;48.286;8.484;2023-12-14T04:56:16;93379.97;;;2.84;100.00
39739;BME280;25422;48.286;8.484;2023-12-14T04:58:42;93380.41;;;2.80;100.00
39739;BME280;25422;48.286;8.484;2023-12-14T05:01:07;93377.13;;;2.78;100.00
39739;BME280;25422;48.286;8.484;2023-12-14T05:03:35;93393.56;;;2.77;100.00
39739;BME280;25422;48.286;8.484;2023-12-14T05:06:01;93386.66;;;2.77;100.00
39739;BME280;25422;48.286;8.484;2023-12-14T05:08:26;93401.06;;;2.80;100.00
39739;BME280;25422;48.286;8.484;2023-12-14T05:10:52;93402.00;;;2.79;100.00
39739;BME280;25422;48.286;8.484;2023-12-14T05:13:17;93403.50;;;2.81;100.00
39739;BME280;25422;48.286;8.484;2023-12-14T05:15:43;93404.03;;;2.85;100.00
39739;BME280;25422;48.286;8.484;2023-12-14T05:18:08;93415.72;;;2.79;100.00
39739;BME280;25422;48.286;8.484;2023-12-14T05:20:34;93418.75;;;2.75;100.00
39739;BME280;25422;48.286;8.484;2023-12-14T05:23:01;93420.63;;;2.73;100.00
39739;BME280;25422;48.286;8.484;2023-12-14T05:25:26;93427.03;;;2.68;100.00
39739;BME280;25422;48.286;8.484;2023-12-14T05:27:52;93433.19;;;2.67;100.00
39739;BME280;25422;48.286;8.484;2023-12-14T05:30:17;93439.44;;;2.65;100.00
39739;BME280;25422;48.286;8.484;2023-12-14T05:32:43;93438.91;;;2.61;100.00
39739;BME280;25422;48.286;8.484;2023-12-14T05:35:09;93445.97;;;2.59;100.00
39739;BME280;25422;48.286;8.484;2023-12-14T05:37:35;93451.16;;;2.59;100.00
39739;BME280;25422;48.286;8.484;2023-12-14T05:40:01;93445.97;;;2.59;100.00
39739;BME280;25422;48.286;8.484;2023-12-14T05:42:27;93459.00;;;2.58;100.00
39739;BME280;25422;48.286;8.484;2023-12-14T05:44:53;93464.47;;;2.55;100.00
39739;BME280;25422;48.286;8.484;2023-12-14T05:47:18;93464.31;;;2.56;100.00
39739;BME280;25422;48.286;8.484;2023-12-14T05:49:44;93463.22;;;2.59;100.00
39739;BME280;25422;48.286;8.484;2023-12-14T05:52:10;93461.34;;;2.61;100.00
39739;BME280;25422;48.286;8.484;2023-12-14T05:54:36;93468.00;;;2.63;100.00
39739;BME280;25422;48.286;8.484;2023-12-14T05:57:02;93473.81;;;2.65;100.00
39739;BME280;25422;48.286;8.484;2023-12-14T05:59:28;93478.31;;;2.63;100.00
39739;BME280;25422;48.286;8.484;2023-12-14T06:02:00;93471.22;;;2.65;100.00
39739;BME280;25422;48.286;8.484;2023-12-14T06:04:27;93487.81;;;2.63;100.00
39739;BME280;25422;48.286;8.484;2023-12-14T06:06:53;93496.50;;;2.62;100.00
39739;BME280;25422;48.286;8.484;2023-12-14T06:09:18;93504.16;;;2.63;100.00
39739;BME280;25422;48.286;8.484;2023-12-14T06:11:55;93499.94;;;2.62;100.00
39739;BME280;25422;48.286;8.484;2023-12-14T06:14:20;93513.50;;;2.64;100.00
39739;BME280;25422;48.286;8.484;2023-12-14T06:16:45;93517.72;;;2.65;100.00
39739;BME280;25422;48.286;8.484;2023-12-14T06:19:11;93522.59;;;2.68;100.00
39739;BME280;25422;48.286;8.484;2023-12-14T06:21:36;93537.84;;;2.72;100.00
39739;BME280;25422;48.286;8.484;2023-12-14T06:24:02;93537.72;;;2.73;100.00
39739;BME280;25422;48.286;8.484;2023-12-14T06:26:27;93544.22;;;2.77;100.00
39739;BME280;25422;48.286;8.484;2023-12-14T06:28:53;93543.28;;;2.78;100.00
39739;BME280;25422;48.286;8.484;2023-12-14T06:31:18;93549.25;;;2.79;100.00
39739;BME280;25422;48.286;8.484;2023-12-14T06:33:48;93549.94;;;2.81;100.00
39739;BME280;25422;48.286;8.484;2023-12-14T06:36:15;93552.53;;;2.81;100.00
39739;BME280;25422;48.286;8.484;2023-12-14T06:38:42;93558.50;;;2.81;100.00
39739;BME280;25422;48.286;8.484;2023-12-14T06:41:07;93557.41;;;2.84;100.00
39739;BME280;25422;48.286;8.484;2023-12-14T06:43:34;93565.31;;;2.82;100.00
39739;BME280;25422;48.286;8.484;2023-12-14T06:45:59;93574.81;;;2.82;100.00
39739;BME280;25422;48.286;8.484;2023-12-14T06:48:25;93570.63;;;2.81;100.00
39739;BME280;25422;48.286;8.484;2023-12-14T06:50:50;93579.16;;;2.81;100.00
39739;BME280;25422;48.286;8.484;2023-12-14T06:53:16;93587.72;;;2.82;100.00
39739;BME280;25422;48.286;8.484;2023-12-14T06:55:41;93592.09;;;2.81;100.00
39739;BME280;25422;48.286;8.484;2023-12-14T06:58:07;93592.09;;;2.81;100.00
39739;BME280;25422;48.286;8.484;2023-12-14T07:00:39;93601.47;;;2.82;100.00
39739;BME280;25422;48.286;8.484;2023-12-14T07:03:05;93597.09;;;2.83;100.00
39739;BME280;25422;48.286;8.484;2023-12-14T07:05:30;93609.22;;;2.82;100.00
39739;BME280;25422;48.286;8.484;2023-12-14T07:07:57;93617.78;;;2.83;100.00
39739;BME280;25422;48.286;8.484;2023-12-14T07:10:23;93624.72;;;2.82;100.00
39739;BME280;25422;48.286;8.484;2023-12-14T07:12:48;93623.75;;;2.83;100.00
39739;BME280;25422;48.286;8.484;2023-12-14T07:15:14;93635.19;;;2.81;100.00
39739;BME280;25422;48.286;8.484;2023-12-14T07:17:39;93634.50;;;2.79;100.00
39739;BME280;25422;48.286;8.484;2023-12-14T07:20:05;93644.03;;;2.78;100.00
39739;BME280;25422;48.286;8.484;2023-12-14T07:22:31;93640.63;;;2.78;100.00
39739;BME280;25422;48.286;8.484;2023-12-14T07:24:57;93646.72;;;2.77;100.00
39739;BME280;25422;48.286;8.484;2023-12-14T07:27:22;93638.97;;;2.77;100.00
39739;BME280;25422;48.286;8.484;2023-12-14T07:29:48;93653.53;;;2.78;100.00
39739;BME280;25422;48.286;8.484;2023-12-14T07:32:13;93654.47;;;2.77;100.00
39739;BME280;25422;48.286;8.484;2023-12-14T07:34:38;93657.91;;;2.77;100.00
39739;BME280;25422;48.286;8.484;2023-12-14T07:37:04;93667.28;;;2.78;100.00
39739;BME280;25422;48.286;8.484;2023-12-14T07:39:31;93664.69;;;2.78;100.00
39739;BME280;25422;48.286;8.484;2023-12-14T07:41:56;93673.13;;;2.80;100.00
39739;BME280;25422;48.286;8.484;2023-12-14T07:44:22;93680.06;;;2.80;100.00
39739;BME280;25422;48.286;8.484;2023-12-14T07:46:48;93679.91;;;2.81;100.00
39739;BME280;25422;48.286;8.484;2023-12-14T07:49:13;93688.47;;;2.82;100.00
39739;BME280;25422;48.286;8.484;2023-12-14T07:51:39;93689.44;;;2.81;100.00
39739;BME280;25422;48.286;8.484;2023-12-14T07:54:04;93684.94;;;2.83;100.00
39739;BME280;25422;48.286;8.484;2023-12-14T07:56:29;93697.06;;;2.82;100.00
39739;BME280;25422;48.286;8.484;2023-12-14T07:58:55;93695.56;;;2.80;100.00
39739;BME280;25422;48.286;8.484;2023-12-14T08:01:20;93693.22;;;2.77;100.00
39739;BME280;25422;48.286;8.484;2023-12-14T08:03:46;93697.31;;;2.79;100.00
39739;BME280;25422;48.286;8.484;2023-12-14T08:06:12;93703.03;;;2.83;100.00
39739;BME280;25422;48.286;8.484;2023-12-14T08:08:37;93715.00;;;2.84;100.00
39739;BME280;25422;48.286;8.484;2023-12-14T08:11:03;93723.56;;;2.84;100.00
39739;BME280;25422;48.286;8.484;2023-12-14T08:13:29;93727.66;;;2.87;100.00
39739;BME280;25422;48.286;8.484;2023-12-14T08:15:55;93731.59;;;2.91;100.00
39739;BME280;25422;48.286;8.484;2023-12-14T08:18:20;93740.56;;;2.87;100.00
39739;BME280;25422;48.286;8.484;2023-12-14T08:20:46;93732.53;;;2.90;100.00
39739;BME280;25422;48.286;8.484;2023-12-14T08:23:11;93749.81;;;2.90;100.00
39739;BME280;25422;48.286;8.484;2023-12-14T08:25:37;93743.84;;;2.89;100.00
39739;BME280;25422;48.286;8.484;2023-12-14T08:28:02;93760.03;;;2.91;100.00
39739;BME280;25422;48.286;8.484;2023-12-14T08:30:28;93761.81;;;2.91;100.00
39739;BME280;25422;48.286;8.484;2023-12-14T08:32:53;93767.63;;;2.93;100.00
39739;BME280;25422;48.286;8.484;2023-12-14T08:35:19;93774.72;;;2.91;100.00
39739;BME280;25422;48.286;8.484;2023-12-14T08:37:44;93777.31;;;2.91;100.00
39739;BME280;25422;48.286;8.484;2023-12-14T08:40:10;93783.00;;;2.94;100.00
39739;BME280;25422;48.286;8.484;2023-12-14T08:42:36;93785.47;;;2.96;100.00
39739;BME280;25422;48.286;8.484;2023-12-14T08:45:01;93784.78;;;2.94;100.00
39739;BME280;25422;48.286;8.484;2023-12-14T08:47:27;93796.06;;;2.93;100.00
39739;BME280;25422;48.286;8.484;2023-12-14T08:49:52;93793.47;;;2.93;100.00
39739;BME280;25422;48.286;8.484;2023-12-14T08:52:18;93800.41;;;2.92;100.00
39739;BME280;25422;48.286;8.484;2023-12-14T08:54:44;93808.03;;;2.94;100.00
39739;BME280;25422;48.286;8.484;2023-12-14T08:57:10;93807.22;;;2.93;100.00
39739;BME280;25422;48.286;8.484;2023-12-14T08:59:36;93823.69;;;2.92;100.00
39739;BME280;25422;48.286;8.484;2023-12-14T09:02:01;93821.75;;;2.94;100.00
39739;BME280;25422;48.286;8.484;2023-12-14T09:04:27;93831.59;;;3.00;100.00
39739;BME280;25422;48.286;8.484;2023-12-14T09:06:53;93834.03;;;3.02;100.00
39739;BME280;25422;48.286;8.484;2023-12-14T09:09:18;93835.69;;;3.03;100.00
39739;BME280;25422;48.286;8.484;2023-12-14T09:11:44;93835.94;;;3.00;100.00
39739;BME280;25422;48.286;8.484;2023-12-14T09:14:10;93838.41;;;3.01;100.00
39739;BME280;25422;48.286;8.484;2023-12-14T09:16:35;93842.34;;;3.06;100.00
39739;BME280;25422;48.286;8.484;2023-12-14T09:19:01;93853.13;;;3.11;100.00
39739;BME280;25422;48.286;8.484;2023-12-14T09:21:26;93852.84;;;3.14;100.00
39739;BME280;25422;48.286;8.484;2023-12-14T09:23:52;93852.06;;;3.23;100.00
39739;BME280;25422;48.286;8.484;2023-12-14T09:26:19;93870.97;;;3.33;100.00
39739;BME280;25422;48.286;8.484;2023-12-14T09:28:44;93869.50;;;3.41;100.00
39739;BME280;25422;48.286;8.484;2023-12-14T09:31:09;93871.41;;;3.48;100.00
39739;BME280;25422;48.286;8.484;2023-12-14T09:33:35;93882.03;;;3.35;100.00
39739;BME280;25422;48.286;8.484;2023-12-14T09:36:01;93882.69;;;3.37;100.00
39739;BME280;25422;48.286;8.484;2023-12-14T09:38:26;93891.00;;;3.41;100.00
39739;BME280;25422;48.286;8.484;2023-12-14T09:40:52;93887.19;;;3.35;100.00
39739;BME280;25422;48.286;8.484;2023-12-14T09:43:17;93894.25;;;3.33;100.00
39739;BME280;25422;48.286;8.484;2023-12-14T09:45:43;93901.91;;;3.45;100.00
39739;BME280;25422;48.286;8.484;2023-12-14T09:48:11;93903.94;;;3.51;100.00
39739;BME280;25422;48.286;8.484;2023-12-14T09:50:39;93907.88;;;3.35;100.00
39739;BME280;25422;48.286;8.484;2023-12-14T09:53:04;93911.69;;;3.31;100.00
39739;BME280;25422;48.286;8.484;2023-12-14T09:55:30;93919.16;;;3.34;100.00
39739;BME280;25422;48.286;8.484;2023-12-14T09:57:56;93912.78;;;3.38;100.00
39739;BME280;25422;48.286;8.484;2023-12-14T10:00:39;93911.44;;;3.44;100.00
39739;BME280;25422;48.286;8.484;2023-12-14T10:03:20;93914.44;;;3.49;100.00
39739;BME280;25422;48.286;8.484;2023-12-14T10:05:46;93924.78;;;3.59;100.00
39739;BME280;25422;48.286;8.484;2023-12-14T10:08:14;93927.25;;;3.61;100.00
39739;BME280;25422;48.286;8.484;2023-12-14T10:10:39;93928.63;;;3.65;100.00
39739;BME280;25422;48.286;8.484;2023-12-14T10:13:05;93925.22;;;3.54;100.00
39739;BME280;25422;48.286;8.484;2023-12-14T10:15:40;93935.56;;;3.64;100.00
39739;BME280;25422;48.286;8.484;2023-12-14T10:18:06;93938.69;;;3.58;100.00
39739;BME280;25422;48.286;8.484;2023-12-14T10:20:32;93942.78;;;3.61;100.00
39739;BME280;25422;48.286;8.484;2023-12-14T10:22:57;93949.88;;;3.78;100.00
39739;BME280;25422;48.286;8.484;2023-12-14T10:25:23;93943.63;;;3.91;100.00
39739;BME280;25422;48.286;8.484;2023-12-14T10:27:50;93949.22;;;4.05;100.00
39739;BME280;25422;48.286;8.484;2023-12-14T10:30:17;93952.66;;;3.96;100.00
39739;BME280;25422;48.286;8.484;2023-12-14T10:32:43;93949.41;;;4.14;100.00
39739;BME280;25422;48.286;8.484;2023-12-14T10:35:09;93958.38;;;4.39;100.00
39739;BME280;25422;48.286;8.484;2023-12-14T10:37:37;93953.63;;;4.25;100.00
39739;BME280;25422;48.286;8.484;2023-12-14T10:40:07;93958.09;;;4.32;100.00
39739;BME280;25422;48.286;8.484;2023-12-14T10:42:36;93959.47;;;4.36;100.00
39739;BME280;25422;48.286;8.484;2023-12-14T10:45:02;93964.25;;;4.12;100.00
39739;BME280;25422;48.286;8.484;2023-12-14T10:47:29;93960.97;;;4.10;100.00
39739;BME280;25422;48.286;8.484;2023-12-14T10:49:54;93969.25;;;3.84;100.00
39739;BME280;25422;48.286;8.484;2023-12-14T10:52:22;93978.47;;;3.67;100.00
39739;BME280;25422;48.286;8.484;2023-12-14T10:54:56;93983.34;;;3.50;100.00
39739;BME280;25422;48.286;8.484;2023-12-14T10:57:23;93985.22;;;3.48;100.00
39739;BME280;25422;48.286;8.484;2023-12-14T10:59:49;93980.47;;;3.53;100.00
39739;BME280;25422;48.286;8.484;2023-12-14T11:02:15;93984.72;;;3.64;100.00
39739;BME280;25422;48.286;8.484;2023-12-14T11:05:01;93988.69;;;3.78;100.00
39739;BME280;25422;48.286;8.484;2023-12-14T11:07:49;93993.63;;;3.81;100.00
39739;BME280;25422;48.286;8.484;2023-12-14T11:10:21;93995.66;;;3.87;100.00
39739;BME280;25422;48.286;8.484;2023-12-14T11:12:55;93992.00;;;3.90;100.00
39739;BME280;25422;48.286;8.484;2023-12-14T11:15:23;93987.47;;;3.82;100.00
39739;BME280;25422;48.286;8.484;2023-12-14T11:20:48;93994.75;;;3.98;100.00
39739;BME280;25422;48.286;8.484;2023-12-14T11:23:14;93995.97;;;4.04;100.00
39739;BME280;25422;48.286;8.484;2023-12-14T11:25:43;93999.63;;;4.01;100.00
39739;BME280;25422;48.286;8.484;2023-12-14T11:28:09;94008.53;;;3.99;100.00
39739;BME280;25422;48.286;8.484;2023-12-14T11:30:35;94016.00;;;3.92;100.00
39739;BME280;25422;48.286;8.484;2023-12-14T11:33:01;94013.66;;;3.89;100.00
39739;BME280;25422;48.286;8.484;2023-12-14T11:35:26;94017.31;;;3.77;100.00
39739;BME280;25422;48.286;8.484;2023-12-14T11:37:52;94024.25;;;3.76;100.00
39739;BME280;25422;48.286;8.484;2023-12-14T11:40:18;94020.47;;;3.90;100.00
39739;BME280;25422;48.286;8.484;2023-12-14T11:43:00;94028.66;;;3.95;100.00
39739;BME280;25422;48.286;8.484;2023-12-14T11:45:26;94034.28;;;4.00;100.00
39739;BME280;25422;48.286;8.484;2023-12-14T11:47:52;94037.91;;;3.88;100.00
39739;BME280;25422;48.286;8.484;2023-12-14T11:50:18;94046.34;;;3.90;100.00
39739;BME280;25422;48.286;8.484;2023-12-14T11:52:44;94047.28;;;3.89;100.00
39739;BME280;25422;48.286;8.484;2023-12-14T11:55:10;94038.47;;;4.01;100.00
39739;BME280;25422;48.286;8.484;2023-12-14T11:57:36;94041.13;;;4.21;100.00
39739;BME280;25422;48.286;8.484;2023-12-14T12:00:01;94046.03;;;4.34;100.00
39739;BME280;25422;48.286;8.484;2023-12-14T12:02:30;94047.56;;;4.66;100.00
39739;BME280;25422;48.286;8.484;2023-12-14T12:04:55;94060.63;;;4.45;100.00
39739;BME280;25422;48.286;8.484;2023-12-14T12:07:21;94050.81;;;4.29;100.00
39739;BME280;25422;48.286;8.484;2023-12-14T12:09:47;94061.69;;;4.22;100.00
39739;BME280;25422;48.286;8.484;2023-12-14T12:12:12;94059.38;;;4.10;100.00
39739;BME280;25422;48.286;8.484;2023-12-14T12:14:39;94063.56;;;4.01;100.00
39739;BME280;25422;48.286;8.484;2023-12-14T12:17:05;94061.22;;;3.98;100.00
39739;BME280;25422;48.286;8.484;2023-12-14T12:19:35;94064.59;;;3.88;100.00
39739;BME280;25422;48.286;8.484;2023-12-14T12:22:02;94073.03;;;3.81;100.00
39739;BME280;25422;48.286;8.484;2023-12-14T12:24:28;94064.16;;;3.74;100.00
39739;BME280;25422;48.286;8.484;2023-12-14T12:26:54;94070.28;;;3.72;100.00
39739;BME280;25422;48.286;8.484;2023-12-14T12:29:20;94073.13;;;3.69;100.00
39739;BME280;25422;48.286;8.484;2023-12-14T12:31:46;94074.47;;;4.04;100.00
39739;BME280;25422;48.286;8.484;2023-12-14T12:34:11;94074.34;;;4.16;100.00
39739;BME280;25422;48.286;8.484;2023-12-14T12:36:37;94076.63;;;3.99;100.00
39739;BME280;25422;48.286;8.484;2023-12-14T12:39:03;94080.44;;;3.95;100.00
39739;BME280;25422;48.286;8.484;2023-12-14T12:41:32;94081.38;;;3.94;100.00
39739;BME280;25422;48.286;8.484;2023-12-14T12:43:58;94085.19;;;4.00;100.00
39739;BME280;25422;48.286;8.484;2023-12-14T12:46:36;94083.59;;;4.09;100.00
39739;BME280;25422;48.286;8.484;2023-12-14T12:49:02;94090.28;;;4.11;100.00
39739;BME280;25422;48.286;8.484;2023-12-14T12:51:28;94091.38;;;4.09;100.00
39739;BME280;25422;48.286;8.484;2023-12-14T12:53:55;94088.41;;;4.23;100.00
39739;BME280;25422;48.286;8.484;2023-12-14T12:56:20;94087.06;;;4.29;100.00
39739;BME280;25422;48.286;8.484;2023-12-14T12:58:46;94086.81;;;4.42;100.00
39739;BME280;25422;48.286;8.484;2023-12-14T13:01:12;94095.28;;;4.53;100.00